METAR AND TAF INFORMATION
METAR FOR LTFD
ADDS - METARS form results

(2232 UTC 24 July 2017)
Data provider http://aviationweather.gov/adds/metars/
 
Forecast for: LTFD (BALIKESIR KORFEZ, TR)
Text: TAF LTFD 241940Z 2421/2506 08008KT CAVOK
Forecast period: 2100 UTC 24 July 2017 to 0600 UTC 25 July 2017
Forecast type: FROM: standard forecast or significant change
Winds: from the E (80 degrees) at 9 MPH (8 knots; 4.2 m/s)
Visibility: 6 or more miles (10+ km)
Clouds: not forecast
Weather: NSW  (no significant weather)

 AIRPORT MAP

 RUNWAY INFORMATION
Runway 05 Runway length 9842 ft Runway width 147 ft
Runway elevation 51 ft Runway displaced threshold 0 ft Runway heading 54
Runway 23 Runway length 9842 ft Runway width 147 ft
Runway elevation 51 ft Runway displaced threshold 0 ft Runway heading 234

 AIRPORT FREQUENCIES
Type EMR Name SAR Frequency 123.1 MHZ
Type GND Name GND Frequency 121.9 MHZ
Type TWR Name TWR Frequency 119.7 MHZ

 AIRPORT NEAR NAVIGATION AIDS
Type VOR-DME Name Edremit Frequency 109400 KHZ
Type NDB Name Edremit Frequency 368 KHZ



Copyright © 2011 - 2017 BirgenAir Virtual Airlines. All rights reserved. Developed by Goktug Unver